sensor_id;sensor_type;location;lat;lon;timestamp;temperature;humidity
61374;DHT22;47242;48.158;-1.586;2023-07-28T04:30:49;19.70;90.30
61374;DHT22;47242;48.158;-1.586;2023-07-28T04:33:15;19.60;90.30
61374;DHT22;47242;48.158;-1.586;2023-07-28T04:35:41;19.70;90.30
61374;DHT22;47242;48.158;-1.586;2023-07-28T04:38:06;19.60;90.40
61374;DHT22;47242;48.158;-1.586;2023-07-28T04:40:32;19.60;90.50
61374;DHT22;47242;48.158;-1.586;2023-07-28T04:42:58;19.60;90.40
61374;DHT22;47242;48.158;-1.586;2023-07-28T04:45:23;19.70;90.40
61374;DHT22;47242;48.158;-1.586;2023-07-28T04:47:49;19.70;90.40
61374;DHT22;47242;48.158;-1.586;2023-07-28T04:50:15;19.60;90.30
61374;DHT22;47242;48.158;-1.586;2023-07-28T04:52:40;19.60;90.30
61374;DHT22;47242;48.158;-1.586;2023-07-28T04:55:06;19.60;90.40
61374;DHT22;47242;48.158;-1.586;2023-07-28T04:57:32;19.60;90.40
61374;DHT22;47242;48.158;-1.586;2023-07-28T04:59:57;19.70;90.40
61374;DHT22;47242;48.158;-1.586;2023-07-28T05:02:23;19.60;90.40
61374;DHT22;47242;48.158;-1.586;2023-07-28T05:04:49;19.70;90.30
61374;DHT22;47242;48.158;-1.586;2023-07-28T05:07:15;19.70;90.20
61374;DHT22;47242;48.158;-1.586;2023-07-28T05:09:40;19.70;90.30
61374;DHT22;47242;48.158;-1.586;2023-07-28T05:12:06;19.70;90.30
61374;DHT22;47242;48.158;-1.586;2023-07-28T05:14:32;19.70;90.20
61374;DHT22;47242;48.158;-1.586;2023-07-28T05:16:57;19.70;90.30
61374;DHT22;47242;48.158;-1.586;2023-07-28T05:19:23;19.70;90.30
61374;DHT22;47242;48.158;-1.586;2023-07-28T05:21:49;19.70;90.20
61374;DHT22;47242;48.158;-1.586;2023-07-28T05:24:14;19.70;90.30
61374;DHT22;47242;48.158;-1.586;2023-07-28T05:26:40;19.70;90.30
61374;DHT22;47242;48.158;-1.586;2023-07-28T05:29:05;19.70;90.30
61374;DHT22;47242;48.158;-1.586;2023-07-28T05:31:31;19.70;90.20
61374;DHT22;47242;48.158;-1.586;2023-07-28T05:33:57;19.70;90.10
61374;DHT22;47242;48.158;-1.586;2023-07-28T05:36:23;19.70;90.10
61374;DHT22;47242;48.158;-1.586;2023-07-28T05:38:49;19.80;90.00
61374;DHT22;47242;48.158;-1.586;2023-07-28T05:41:15;19.80;90.00
61374;DHT22;47242;48.158;-1.586;2023-07-28T05:43:41;19.80;90.10
61374;DHT22;47242;48.158;-1.586;2023-07-28T05:46:06;19.80;89.90
61374;DHT22;47242;48.158;-1.586;2023-07-28T05:48:32;19.90;89.90
61374;DHT22;47242;48.158;-1.586;2023-07-28T05:50:57;19.90;89.90
61374;DHT22;47242;48.158;-1.586;2023-07-28T05:53:23;19.90;89.90
61374;DHT22;47242;48.158;-1.586;2023-07-28T05:55:49;19.90;89.90
61374;DHT22;47242;48.158;-1.586;2023-07-28T05:58:14;19.90;89.90
61374;DHT22;47242;48.158;-1.586;2023-07-28T06:00:40;19.90;89.90
61374;DHT22;47242;48.158;-1.586;2023-07-28T06:03:12;19.90;89.90
61374;DHT22;47242;48.158;-1.586;2023-07-28T06:05:39;20.00;89.80
61374;DHT22;47242;48.158;-1.586;2023-07-28T06:08:05;20.10;89.70
61374;DHT22;47242;48.158;-1.586;2023-07-28T06:10:31;20.10;89.60
61374;DHT22;47242;48.158;-1.586;2023-07-28T06:12:58;20.10;89.50
61374;DHT22;47242;48.158;-1.586;2023-07-28T06:15:23;20.20;89.50
61374;DHT22;47242;48.158;-1.586;2023-07-28T06:17:49;20.10;89.30
61374;DHT22;47242;48.158;-1.586;2023-07-28T06:20:15;20.20;89.50
61374;DHT22;47242;48.158;-1.586;2023-07-28T06:22:40;20.30;89.40
61374;DHT22;47242;48.158;-1.586;2023-07-28T06:25:06;20.30;89.10
61374;DHT22;47242;48.158;-1.586;2023-07-28T06:27:32;20.40;89.00
61374;DHT22;47242;48.158;-1.586;2023-07-28T06:29:58;20.50;88.90
61374;DHT22;47242;48.158;-1.586;2023-07-28T06:32:24;20.50;88.50
61374;DHT22;47242;48.158;-1.586;2023-07-28T06:34:50;20.50;88.70
61374;DHT22;47242;48.158;-1.586;2023-07-28T06:37:17;20.50;88.70
61374;DHT22;47242;48.158;-1.586;2023-07-28T06:39:42;20.60;88.70
61374;DHT22;47242;48.158;-1.586;2023-07-28T06:42:08;20.60;88.30
61374;DHT22;47242;48.158;-1.586;2023-07-28T06:44:33;20.60;88.40
61374;DHT22;47242;48.158;-1.586;2023-07-28T06:46:59;20.70;88.40
61374;DHT22;47242;48.158;-1.586;2023-07-28T06:49:25;20.80;88.20
61374;DHT22;47242;48.158;-1.586;2023-07-28T06:51:51;20.80;87.80
61374;DHT22;47242;48.158;-1.586;2023-07-28T06:54:17;20.80;88.00
61374;DHT22;47242;48.158;-1.586;2023-07-28T06:56:43;20.80;87.90
61374;DHT22;47242;48.158;-1.586;2023-07-28T06:59:09;20.90;87.40
61374;DHT22;47242;48.158;-1.586;2023-07-28T07:01:35;21.00;87.70
61374;DHT22;47242;48.158;-1.586;2023-07-28T07:04:01;21.10;87.10
61374;DHT22;47242;48.158;-1.586;2023-07-28T07:06:27;21.30;86.90
61374;DHT22;47242;48.158;-1.586;2023-07-28T07:08:52;21.30;86.80
61374;DHT22;47242;48.158;-1.586;2023-07-28T07:11:18;21.10;86.90
61374;DHT22;47242;48.158;-1.586;2023-07-28T07:13:43;21.10;87.10
61374;DHT22;47242;48.158;-1.586;2023-07-28T07:16:16;21.10;87.00
61374;DHT22;47242;48.158;-1.586;2023-07-28T07:18:42;21.10;86.90
61374;DHT22;47242;48.158;-1.586;2023-07-28T07:21:08;21.10;86.90
61374;DHT22;47242;48.158;-1.586;2023-07-28T07:23:34;21.00;86.90
61374;DHT22;47242;48.158;-1.586;2023-07-28T07:26:00;20.90;87.20
61374;DHT22;47242;48.158;-1.586;2023-07-28T07:28:25;20.90;87.30
61374;DHT22;47242;48.158;-1.586;2023-07-28T07:30:52;20.90;87.40
61374;DHT22;47242;48.158;-1.586;2023-07-28T07:33:18;20.90;87.30
61374;DHT22;47242;48.158;-1.586;2023-07-28T07:35:44;20.90;87.20
61374;DHT22;47242;48.158;-1.586;2023-07-28T07:38:10;21.00;87.30
61374;DHT22;47242;48.158;-1.586;2023-07-28T07:40:36;21.00;86.80
61374;DHT22;47242;48.158;-1.586;2023-07-28T07:43:01;21.20;86.60
61374;DHT22;47242;48.158;-1.586;2023-07-28T07:45:31;21.70;86.50
61374;DHT22;47242;48.158;-1.586;2023-07-28T07:47:58;21.80;85.80
61374;DHT22;47242;48.158;-1.586;2023-07-28T07:50:24;21.80;85.80
61374;DHT22;47242;48.158;-1.586;2023-07-28T07:52:50;21.70;85.10
61374;DHT22;47242;48.158;-1.586;2023-07-28T07:55:15;21.70;85.70
61374;DHT22;47242;48.158;-1.586;2023-07-28T07:57:41;21.60;85.30
61374;DHT22;47242;48.158;-1.586;2023-07-28T08:00:08;21.50;85.50
61374;DHT22;47242;48.158;-1.586;2023-07-28T08:02:34;21.40;85.60
61374;DHT22;47242;48.158;-1.586;2023-07-28T08:05:00;21.40;86.10
61374;DHT22;47242;48.158;-1.586;2023-07-28T08:07:26;21.40;85.90
61374;DHT22;47242;48.158;-1.586;2023-07-28T08:09:52;21.30;86.30
61374;DHT22;47242;48.158;-1.586;2023-07-28T08:12:18;21.30;85.90
61374;DHT22;47242;48.158;-1.586;2023-07-28T08:14:44;21.40;85.90
61374;DHT22;47242;48.158;-1.586;2023-07-28T08:17:11;21.50;85.50
61374;DHT22;47242;48.158;-1.586;2023-07-28T08:19:37;21.60;85.30
61374;DHT22;47242;48.158;-1.586;2023-07-28T08:22:03;21.70;85.50
61374;DHT22;47242;48.158;-1.586;2023-07-28T08:24:29;21.60;85.00
61374;DHT22;47242;48.158;-1.586;2023-07-28T08:26:55;21.70;85.00
61374;DHT22;47242;48.158;-1.586;2023-07-28T08:29:20;21.60;85.10
61374;DHT22;47242;48.158;-1.586;2023-07-28T08:31:46;21.60;84.70
61374;DHT22;47242;48.158;-1.586;2023-07-28T08:34:12;21.60;84.30
61374;DHT22;47242;48.158;-1.586;2023-07-28T08:36:38;21.70;84.80
61374;DHT22;47242;48.158;-1.586;2023-07-28T08:39:04;21.80;84.80
61374;DHT22;47242;48.158;-1.586;2023-07-28T08:41:30;22.00;84.50
61374;DHT22;47242;48.158;-1.586;2023-07-28T08:43:56;22.00;84.70
61374;DHT22;47242;48.158;-1.586;2023-07-28T08:46:23;22.10;84.10
61374;DHT22;47242;48.158;-1.586;2023-07-28T08:48:49;22.60;83.30
61374;DHT22;47242;48.158;-1.586;2023-07-28T08:51:14;22.70;82.30
61374;DHT22;47242;48.158;-1.586;2023-07-28T08:53:40;22.60;82.20
61374;DHT22;47242;48.158;-1.586;2023-07-28T08:56:06;22.70;81.80
61374;DHT22;47242;48.158;-1.586;2023-07-28T08:58:32;22.50;80.90
61374;DHT22;47242;48.158;-1.586;2023-07-28T09:00:59;22.60;81.70
61374;DHT22;47242;48.158;-1.586;2023-07-28T09:03:27;22.50;81.80
61374;DHT22;47242;48.158;-1.586;2023-07-28T09:05:59;22.30;81.50
61374;DHT22;47242;48.158;-1.586;2023-07-28T09:08:26;22.20;82.20
61374;DHT22;47242;48.158;-1.586;2023-07-28T09:10:52;22.10;82.20
61374;DHT22;47242;48.158;-1.586;2023-07-28T09:13:19;22.20;81.70
61374;DHT22;47242;48.158;-1.586;2023-07-28T09:15:45;22.60;80.30
61374;DHT22;47242;48.158;-1.586;2023-07-28T09:18:15;22.70;80.30
61374;DHT22;47242;48.158;-1.586;2023-07-28T09:20:42;22.70;80.10
61374;DHT22;47242;48.158;-1.586;2023-07-28T09:23:09;22.80;80.10
61374;DHT22;47242;48.158;-1.586;2023-07-28T09:25:36;23.00;80.50
61374;DHT22;47242;48.158;-1.586;2023-07-28T09:28:02;24.20;78.30
61374;DHT22;47242;48.158;-1.586;2023-07-28T09:30:46;25.70;75.70
61374;DHT22;47242;48.158;-1.586;2023-07-28T09:33:12;27.40;69.80
61374;DHT22;47242;48.158;-1.586;2023-07-28T09:35:48;28.60;64.00
61374;DHT22;47242;48.158;-1.586;2023-07-28T09:38:14;29.10;61.50
61374;DHT22;47242;48.158;-1.586;2023-07-28T09:40:41;29.50;58.90
61374;DHT22;47242;48.158;-1.586;2023-07-28T09:43:07;29.90;59.10
61374;DHT22;47242;48.158;-1.586;2023-07-28T09:45:34;30.20;55.10
61374;DHT22;47242;48.158;-1.586;2023-07-28T09:48:02;30.10;56.20
61374;DHT22;47242;48.158;-1.586;2023-07-28T09:50:32;30.00;54.60
61374;DHT22;47242;48.158;-1.586;2023-07-28T09:53:01;29.10;58.00
61374;DHT22;47242;48.158;-1.586;2023-07-28T09:55:28;28.30;59.00
61374;DHT22;47242;48.158;-1.586;2023-07-28T09:57:55;27.60;60.90
61374;DHT22;47242;48.158;-1.586;2023-07-28T10:00:23;27.00;62.80
61374;DHT22;47242;48.158;-1.586;2023-07-28T10:02:49;26.60;63.70
61374;DHT22;47242;48.158;-1.586;2023-07-28T10:05:18;26.20;66.80
61374;DHT22;47242;48.158;-1.586;2023-07-28T10:07:47;25.80;66.20
61374;DHT22;47242;48.158;-1.586;2023-07-28T10:10:14;25.30;67.10
61374;DHT22;47242;48.158;-1.586;2023-07-28T10:12:47;25.00;67.90
61374;DHT22;47242;48.158;-1.586;2023-07-28T10:15:15;24.80;68.80
61374;DHT22;47242;48.158;-1.586;2023-07-28T10:17:50;24.50;70.00
61374;DHT22;47242;48.158;-1.586;2023-07-28T10:20:37;24.50;70.40
61374;DHT22;47242;48.158;-1.586;2023-07-28T10:23:17;24.40;69.80
61374;DHT22;47242;48.158;-1.586;2023-07-28T10:25:44;24.30;70.90
61374;DHT22;47242;48.158;-1.586;2023-07-28T10:28:34;24.30;70.80
61374;DHT22;47242;48.158;-1.586;2023-07-28T10:31:04;24.10;70.20
61374;DHT22;47242;48.158;-1.586;2023-07-28T10:33:33;23.90;71.00
61374;DHT22;47242;48.158;-1.586;2023-07-28T10:36:53;23.80;71.40
61374;DHT22;47242;48.158;-1.586;2023-07-28T10:39:15;23.60;71.40
61374;DHT22;47242;48.158;-1.586;2023-07-28T10:44:29;23.60;72.20
61374;DHT22;47242;48.158;-1.586;2023-07-28T10:46:55;23.60;72.20
61374;DHT22;47242;48.158;-1.586;2023-07-28T10:49:20;23.90;72.20
61374;DHT22;47242;48.158;-1.586;2023-07-28T10:51:46;24.00;71.80
61374;DHT22;47242;48.158;-1.586;2023-07-28T10:54:12;24.30;71.70
61374;DHT22;47242;48.158;-1.586;2023-07-28T10:56:42;24.50;70.60
61374;DHT22;47242;48.158;-1.586;2023-07-28T10:59:08;24.80;71.40
61374;DHT22;47242;48.158;-1.586;2023-07-28T11:01:38;25.00;70.40
61374;DHT22;47242;48.158;-1.586;2023-07-28T11:04:15;25.10;70.00
61374;DHT22;47242;48.158;-1.586;2023-07-28T11:06:43;25.40;70.00
61374;DHT22;47242;48.158;-1.586;2023-07-28T11:09:09;25.40;68.70
61374;DHT22;47242;48.158;-1.586;2023-07-28T11:11:39;25.20;66.90
61374;DHT22;47242;48.158;-1.586;2023-07-28T11:14:06;25.00;68.60
61374;DHT22;47242;48.158;-1.586;2023-07-28T11:16:34;25.00;69.90
61374;DHT22;47242;48.158;-1.586;2023-07-28T11:19:01;25.00;68.60
61374;DHT22;47242;48.158;-1.586;2023-07-28T11:21:28;25.30;68.90
61374;DHT22;47242;48.158;-1.586;2023-07-28T11:23:54;25.40;69.70
61374;DHT22;47242;48.158;-1.586;2023-07-28T11:26:20;25.70;69.10
61374;DHT22;47242;48.158;-1.586;2023-07-28T11:28:47;25.60;64.60
61374;DHT22;47242;48.158;-1.586;2023-07-28T11:31:13;25.50;66.10
61374;DHT22;47242;48.158;-1.586;2023-07-28T11:33:39;25.50;65.30
61374;DHT22;47242;48.158;-1.586;2023-07-28T11:36:05;25.50;65.30
61374;DHT22;47242;48.158;-1.586;2023-07-28T11:38:32;25.60;67.00
61374;DHT22;47242;48.158;-1.586;2023-07-28T11:40:59;25.80;65.80
61374;DHT22;47242;48.158;-1.586;2023-07-28T11:43:25;25.90;65.10
61374;DHT22;47242;48.158;-1.586;2023-07-28T11:45:51;26.00;64.50
61374;DHT22;47242;48.158;-1.586;2023-07-28T11:48:17;26.30;65.20
61374;DHT22;47242;48.158;-1.586;2023-07-28T11:50:43;26.30;64.40
61374;DHT22;47242;48.158;-1.586;2023-07-28T11:53:10;26.30;63.80
61374;DHT22;47242;48.158;-1.586;2023-07-28T11:55:37;26.30;63.50
61374;DHT22;47242;48.158;-1.586;2023-07-28T11:58:05;26.60;64.20
61374;DHT22;47242;48.158;-1.586;2023-07-28T12:00:32;26.60;64.50
61374;DHT22;47242;48.158;-1.586;2023-07-28T12:03:29;26.40;63.80
61374;DHT22;47242;48.158;-1.586;2023-07-28T12:06:05;26.40;62.70
61374;DHT22;47242;48.158;-1.586;2023-07-28T12:08:36;26.30;62.60
61374;DHT22;47242;48.158;-1.586;2023-07-28T12:11:02;26.20;61.20
61374;DHT22;47242;48.158;-1.586;2023-07-28T12:13:27;26.20;62.00
61374;DHT22;47242;48.158;-1.586;2023-07-28T12:15:54;26.10;61.20
61374;DHT22;47242;48.158;-1.586;2023-07-28T12:18:20;26.10;61.20
61374;DHT22;47242;48.158;-1.586;2023-07-28T12:20:47;26.10;60.50
61374;DHT22;47242;48.158;-1.586;2023-07-28T12:23:17;26.20;60.10
61374;DHT22;47242;48.158;-1.586;2023-07-28T12:25:44;26.30;62.40
61374;DHT22;47242;48.158;-1.586;2023-07-28T12:28:10;26.40;59.30
61374;DHT22;47242;48.158;-1.586;2023-07-28T12:30:36;26.50;59.20
61374;DHT22;47242;48.158;-1.586;2023-07-28T12:33:03;26.50;60.30
61374;DHT22;47242;48.158;-1.586;2023-07-28T12:35:30;26.50;59.80
61374;DHT22;47242;48.158;-1.586;2023-07-28T12:38:04;26.60;59.40
61374;DHT22;47242;48.158;-1.586;2023-07-28T12:40:32;26.50;58.80
61374;DHT22;47242;48.158;-1.586;2023-07-28T12:42:58;26.60;57.20
61374;DHT22;47242;48.158;-1.586;2023-07-28T12:45:25;26.60;57.60
61374;DHT22;47242;48.158;-1.586;2023-07-28T12:47:55;26.60;57.40
61374;DHT22;47242;48.158;-1.586;2023-07-28T12:50:21;26.80;59.50
61374;DHT22;47242;48.158;-1.586;2023-07-28T12:52:48;26.60;56.90
61374;DHT22;47242;48.158;-1.586;2023-07-28T12:55:15;26.30;57.60
61374;DHT22;47242;48.158;-1.586;2023-07-28T12:57:41;26.30;59.30
61374;DHT22;47242;48.158;-1.586;2023-07-28T13:00:07;26.20;57.80
61374;DHT22;47242;48.158;-1.586;2023-07-28T13:02:43;26.30;60.10
61374;DHT22;47242;48.158;-1.586;2023-07-28T13:05:09;26.40;59.40
61374;DHT22;47242;48.158;-1.586;2023-07-28T13:07:36;26.50;58.60
61374;DHT22;47242;48.158;-1.586;2023-07-28T13:10:03;26.60;60.70
61374;DHT22;47242;48.158;-1.586;2023-07-28T13:12:29;26.60;56.80
61374;DHT22;47242;48.158;-1.586;2023-07-28T13:14:55;26.70;59.80
61374;DHT22;47242;48.158;-1.586;2023-07-28T13:17:21;26.70;56.30
61374;DHT22;47242;48.158;-1.586;2023-07-28T13:19:46;26.60;57.10
61374;DHT22;47242;48.158;-1.586;2023-07-28T13:22:12;26.40;56.00
61374;DHT22;47242;48.158;-1.586;2023-07-28T13:24:37;26.50;56.90
61374;DHT22;47242;48.158;-1.586;2023-07-28T13:27:04;26.60;57.50
61374;DHT22;47242;48.158;-1.586;2023-07-28T13:29:30;26.70;57.30
61374;DHT22;47242;48.158;-1.586;2023-07-28T13:31:58;26.80;56.10
61374;DHT22;47242;48.158;-1.586;2023-07-28T13:34:27;26.80;57.20
61374;DHT22;47242;48.158;-1.586;2023-07-28T13:36:54;26.80;54.80
61374;DHT22;47242;48.158;-1.586;2023-07-28T13:39:20;26.80;56.00
61374;DHT22;47242;48.158;-1.586;2023-07-28T13:41:46;26.80;54.90
61374;DHT22;47242;48.158;-1.586;2023-07-28T13:44:11;26.80;57.00
61374;DHT22;47242;48.158;-1.586;2023-07-28T13:46:37;26.80;56.30
61374;DHT22;47242;48.158;-1.586;2023-07-28T13:49:02;26.70;56.40
61374;DHT22;47242;48.158;-1.586;2023-07-28T13:51:28;26.80;55.70
61374;DHT22;47242;48.158;-1.586;2023-07-28T13:53:54;26.80;55.60
61374;DHT22;47242;48.158;-1.586;2023-07-28T13:56:20;26.90;54.70
61374;DHT22;47242;48.158;-1.586;2023-07-28T13:58:46;27.10;55.90
61374;DHT22;47242;48.158;-1.586;2023-07-28T14:01:11;27.00;54.30
61374;DHT22;47242;48.158;-1.586;2023-07-28T14:03:37;26.80;55.30
61374;DHT22;47242;48.158;-1.586;2023-07-28T14:06:03;26.60;54.30
61374;DHT22;47242;48.158;-1.586;2023-07-28T14:08:28;26.50;53.90
61374;DHT22;47242;48.158;-1.586;2023-07-28T14:10:55;26.70;55.50
61374;DHT22;47242;48.158;-1.586;2023-07-28T14:13:21;26.70;54.20
61374;DHT22;47242;48.158;-1.586;2023-07-28T14:15:47;26.50;54.20
61374;DHT22;47242;48.158;-1.586;2023-07-28T14:18:13;26.50;54.20
61374;DHT22;47242;48.158;-1.586;2023-07-28T14:20:38;26.40;53.80
61374;DHT22;47242;48.158;-1.586;2023-07-28T14:23:20;26.40;54.80
61374;DHT22;47242;48.158;-1.586;2023-07-28T14:25:47;26.70;54.90
61374;DHT22;47242;48.158;-1.586;2023-07-28T14:28:16;26.50;53.20
61374;DHT22;47242;48.158;-1.586;2023-07-28T14:30:41;26.50;55.10
61374;DHT22;47242;48.158;-1.586;2023-07-28T14:33:12;26.80;53.50
61374;DHT22;47242;48.158;-1.586;2023-07-28T14:35:38;27.00;52.60
61374;DHT22;47242;48.158;-1.586;2023-07-28T14:38:04;27.00;53.10
61374;DHT22;47242;48.158;-1.586;2023-07-28T14:40:29;27.10;54.10
61374;DHT22;47242;48.158;-1.586;2023-07-28T14:42:55;26.90;52.00
61374;DHT22;47242;48.158;-1.586;2023-07-28T14:45:21;27.00;54.00
61374;DHT22;47242;48.158;-1.586;2023-07-28T14:47:46;27.00;52.50
61374;DHT22;47242;48.158;-1.586;2023-07-28T14:50:12;26.90;52.00
61374;DHT22;47242;48.158;-1.586;2023-07-28T14:52:39;26.80;53.30
61374;DHT22;47242;48.158;-1.586;2023-07-28T14:55:04;26.90;53.30
61374;DHT22;47242;48.158;-1.586;2023-07-28T14:57:30;27.00;54.20
61374;DHT22;47242;48.158;-1.586;2023-07-28T14:59:56;27.00;52.20
61374;DHT22;47242;48.158;-1.586;2023-07-28T15:02:21;26.90;52.10
61374;DHT22;47242;48.158;-1.586;2023-07-28T15:04:47;26.60;53.00
61374;DHT22;47242;48.158;-1.586;2023-07-28T15:07:14;26.50;53.40
61374;DHT22;47242;48.158;-1.586;2023-07-28T15:09:40;26.30;53.00
61374;DHT22;47242;48.158;-1.586;2023-07-28T15:12:06;26.20;54.00
61374;DHT22;47242;48.158;-1.586;2023-07-28T15:14:32;26.30;54.50
61374;DHT22;47242;48.158;-1.586;2023-07-28T15:16:57;26.30;55.00
61374;DHT22;47242;48.158;-1.586;2023-07-28T15:19:23;26.20;53.90
61374;DHT22;47242;48.158;-1.586;2023-07-28T15:21:49;26.30;54.30
61374;DHT22;47242;48.158;-1.586;2023-07-28T15:24:14;26.20;54.20
61374;DHT22;47242;48.158;-1.586;2023-07-28T15:26:40;26.30;53.30
61374;DHT22;47242;48.158;-1.586;2023-07-28T15:29:06;26.40;54.30
61374;DHT22;47242;48.158;-1.586;2023-07-28T15:31:32;26.80;53.30
61374;DHT22;47242;48.158;-1.586;2023-07-28T15:33:58;27.10;53.90
61374;DHT22;47242;48.158;-1.586;2023-07-28T15:36:23;27.30;52.30
61374;DHT22;47242;48.158;-1.586;2023-07-28T15:38:49;27.20;52.70
61374;DHT22;47242;48.158;-1.586;2023-07-28T15:41:14;27.20;51.80
61374;DHT22;47242;48.158;-1.586;2023-07-28T15:43:40;27.00;53.40
61374;DHT22;47242;48.158;-1.586;2023-07-28T15:46:06;27.00;53.80
61374;DHT22;47242;48.158;-1.586;2023-07-28T15:48:33;26.80;53.20
61374;DHT22;47242;48.158;-1.586;2023-07-28T15:50:58;26.70;53.80
61374;DHT22;47242;48.158;-1.586;2023-07-28T15:53:24;26.60;54.90
61374;DHT22;47242;48.158;-1.586;2023-07-28T15:55:49;26.40;55.10
61374;DHT22;47242;48.158;-1.586;2023-07-28T15:58:15;26.40;55.20
61374;DHT22;47242;48.158;-1.586;2023-07-28T16:00:41;26.50;56.60
61374;DHT22;47242;48.158;-1.586;2023-07-28T16:03:10;26.50;57.60
61374;DHT22;47242;48.158;-1.586;2023-07-28T16:05:39;26.40;57.60
61374;DHT22;47242;48.158;-1.586;2023-07-28T16:08:08;26.20;57.80
61374;DHT22;47242;48.158;-1.586;2023-07-28T16:10:33;25.90;58.40
61374;DHT22;47242;48.158;-1.586;2023-07-28T16:12:59;25.80;59.20
61374;DHT22;47242;48.158;-1.586;2023-07-28T16:15:25;25.70;58.90
61374;DHT22;47242;48.158;-1.586;2023-07-28T16:17:53;25.80;59.10
61374;DHT22;47242;48.158;-1.586;2023-07-28T16:20:19;25.90;58.80
61374;DHT22;47242;48.158;-1.586;2023-07-28T16:22:44;25.80;58.70
61374;DHT22;47242;48.158;-1.586;2023-07-28T16:25:10;25.80;58.80
61374;DHT22;47242;48.158;-1.586;2023-07-28T16:27:35;25.80;58.50
61374;DHT22;47242;48.158;-1.586;2023-07-28T16:30:05;25.80;57.90
61374;DHT22;47242;48.158;-1.586;2023-07-28T16:32:31;25.70;58.20
61374;DHT22;47242;48.158;-1.586;2023-07-28T16:34:57;25.70;58.30
61374;DHT22;47242;48.158;-1.586;2023-07-28T16:37:23;25.60;58.60
61374;DHT22;47242;48.158;-1.586;2023-07-28T16:39:48;25.60;58.50
61374;DHT22;47242;48.158;-1.586;2023-07-28T16:42:17;25.60;58.90
61374;DHT22;47242;48.158;-1.586;2023-07-28T16:44:42;25.50;58.30
61374;DHT22;47242;48.158;-1.586;2023-07-28T16:47:08;25.50;58.80
61374;DHT22;47242;48.158;-1.586;2023-07-28T16:49:34;25.50;58.80
61374;DHT22;47242;48.158;-1.586;2023-07-28T16:51:59;25.30;58.80
61374;DHT22;47242;48.158;-1.586;2023-07-28T16:54:25;25.20;59.30
61374;DHT22;47242;48.158;-1.586;2023-07-28T16:56:56;25.30;59.70
61374;DHT22;47242;48.158;-1.586;2023-07-28T16:59:22;25.30;60.00
61374;DHT22;47242;48.158;-1.586;2023-07-28T17:01:48;25.30;59.30
61374;DHT22;47242;48.158;-1.586;2023-07-28T17:04:16;25.30;59.10
61374;DHT22;47242;48.158;-1.586;2023-07-28T17:06:43;25.20;59.40
61374;DHT22;47242;48.158;-1.586;2023-07-28T17:09:09;25.10;59.30
61374;DHT22;47242;48.158;-1.586;2023-07-28T17:11:37;25.10;59.10
61374;DHT22;47242;48.158;-1.586;2023-07-28T17:14:03;25.20;60.10
61374;DHT22;47242;48.158;-1.586;2023-07-28T17:16:28;25.10;59.70
61374;DHT22;47242;48.158;-1.586;2023-07-28T17:18:54;25.00;60.00
61374;DHT22;47242;48.158;-1.586;2023-07-28T17:21:19;24.80;60.00
61374;DHT22;47242;48.158;-1.586;2023-07-28T17:23:45;24.70;60.40
61374;DHT22;47242;48.158;-1.586;2023-07-28T17:26:11;24.70;60.70
61374;DHT22;47242;48.158;-1.586;2023-07-28T17:28:38;24.60;61.10
61374;DHT22;47242;48.158;-1.586;2023-07-28T17:31:03;24.40;60.80
61374;DHT22;47242;48.158;-1.586;2023-07-28T17:33:29;24.30;61.70
61374;DHT22;47242;48.158;-1.586;2023-07-28T17:35:55;24.30;61.90
61374;DHT22;47242;48.158;-1.586;2023-07-28T17:38:21;24.30;61.70
61374;DHT22;47242;48.158;-1.586;2023-07-28T17:40:47;24.30;61.50
61374;DHT22;47242;48.158;-1.586;2023-07-28T17:43:14;24.10;61.60
61374;DHT22;47242;48.158;-1.586;2023-07-28T17:45:40;24.10;62.10
61374;DHT22;47242;48.158;-1.586;2023-07-28T17:48:06;24.00;62.00
61374;DHT22;47242;48.158;-1.586;2023-07-28T17:50:32;23.90;62.30
61374;DHT22;47242;48.158;-1.586;2023-07-28T17:52:57;23.80;62.30
61374;DHT22;47242;48.158;-1.586;2023-07-28T17:55:23;23.70;62.60
61374;DHT22;47242;48.158;-1.586;2023-07-28T17:57:49;23.70;62.90
61374;DHT22;47242;48.158;-1.586;2023-07-28T18:00:14;23.60;63.30
61374;DHT22;47242;48.158;-1.586;2023-07-28T18:02:40;23.60;63.30
61374;DHT22;47242;48.158;-1.586;2023-07-28T18:05:06;23.50;63.50
61374;DHT22;47242;48.158;-1.586;2023-07-28T18:07:33;23.50;63.90
61374;DHT22;47242;48.158;-1.586;2023-07-28T18:09:58;23.40;64.10
61374;DHT22;47242;48.158;-1.586;2023-07-28T18:12:24;23.30;64.40
61374;DHT22;47242;48.158;-1.586;2023-07-28T18:14:49;23.30;64.50
61374;DHT22;47242;48.158;-1.586;2023-07-28T18:17:15;23.20;64.90
61374;DHT22;47242;48.158;-1.586;2023-07-28T18:19:41;23.20;64.90
61374;DHT22;47242;48.158;-1.586;2023-07-28T18:22:06;23.20;64.70
61374;DHT22;47242;48.158;-1.586;2023-07-28T18:24:32;23.10;65.30
61374;DHT22;47242;48.158;-1.586;2023-07-28T18:26:58;23.00;65.70
61374;DHT22;47242;48.158;-1.586;2023-07-28T18:29:24;23.00;65.30
61374;DHT22;47242;48.158;-1.586;2023-07-28T18:31:49;23.00;65.40
61374;DHT22;47242;48.158;-1.586;2023-07-28T18:34:15;23.10;65.30
61374;DHT22;47242;48.158;-1.586;2023-07-28T18:36:41;23.10;65.00
61374;DHT22;47242;48.158;-1.586;2023-07-28T18:39:06;23.10;65.10
61374;DHT22;47242;48.158;-1.586;2023-07-28T18:41:32;23.20;64.00
61374;DHT22;47242;48.158;-1.586;2023-07-28T18:43:58;23.20;64.30
61374;DHT22;47242;48.158;-1.586;2023-07-28T18:46:24;23.00;63.70
61374;DHT22;47242;48.158;-1.586;2023-07-28T18:48:50;22.80;64.20
61374;DHT22;47242;48.158;-1.586;2023-07-28T18:51:15;22.70;64.50
61374;DHT22;47242;48.158;-1.586;2023-07-28T18:53:42;22.60;64.30
61374;DHT22;47242;48.158;-1.586;2023-07-28T18:56:09;22.60;64.70
61374;DHT22;47242;48.158;-1.586;2023-07-28T18:58:35;22.60;65.10
61374;DHT22;47242;48.158;-1.586;2023-07-28T19:01:00;22.50;64.80
61374;DHT22;47242;48.158;-1.586;2023-07-28T19:03:26;22.50;65.40
61374;DHT22;47242;48.158;-1.586;2023-07-28T19:05:54;22.40;65.30
61374;DHT22;47242;48.158;-1.586;2023-07-28T19:08:20;22.50;65.70
61374;DHT22;47242;48.158;-1.586;2023-07-28T19:10:46;22.40;65.60
61374;DHT22;47242;48.158;-1.586;2023-07-28T19:13:12;22.30;65.90
61374;DHT22;47242;48.158;-1.586;2023-07-28T19:15:38;22.30;66.30
61374;DHT22;47242;48.158;-1.586;2023-07-28T19:18:03;22.30;66.30
61374;DHT22;47242;48.158;-1.586;2023-07-28T19:20:29;22.30;66.90
61374;DHT22;47242;48.158;-1.586;2023-07-28T19:22:54;22.20;67.40
61374;DHT22;47242;48.158;-1.586;2023-07-28T19:25:20;22.10;67.80
61374;DHT22;47242;48.158;-1.586;2023-07-28T19:27:46;22.20;67.80
61374;DHT22;47242;48.158;-1.586;2023-07-28T19:30:12;22.10;68.20
61374;DHT22;47242;48.158;-1.586;2023-07-28T19:32:38;22.10;68.40
61374;DHT22;47242;48.158;-1.586;2023-07-28T19:35:03;22.00;68.50
61374;DHT22;47242;48.158;-1.586;2023-07-28T19:37:30;22.00;68.70
61374;DHT22;47242;48.158;-1.586;2023-07-28T19:39:55;21.90;69.00
61374;DHT22;47242;48.158;-1.586;2023-07-28T19:42:21;21.90;69.30
61374;DHT22;47242;48.158;-1.586;2023-07-28T19:44:47;21.80;69.60